createdAt,value
2019-03-30T00:04:55.853Z,103.47
2019-03-30T00:10:03.994Z,85.53
2019-03-30T00:15:09.700Z,67.13
2019-03-30T00:20:15.510Z,138.47
2019-03-30T00:25:21.401Z,310.77
2019-03-30T00:30:27.140Z,478.17
2019-03-30T00:35:32.812Z,695.10
2019-03-30T00:40:38.883Z,693.83
2019-03-30T00:45:44.649Z,817.57
2019-03-30T00:50:50.511Z,1012.13
2019-03-30T00:55:56.390Z,795.17
2019-03-30T01:01:02.131Z,596.95
2019-03-30T01:06:07.806Z,458.27
2019-03-30T01:11:13.774Z,342.68
2019-03-30T01:16:22.340Z,220.30
2019-03-30T01:21:28.481Z,127.93
2019-03-30T01:31:39.618Z,66.23
2019-03-30T01:36:45.041Z,53.23
2019-03-30T01:41:50.837Z,44.70
2019-03-30T01:52:03.043Z,42.77
2019-03-30T01:57:08.652Z,40.83
2019-03-30T02:02:14.314Z,38.13
2019-03-30T02:07:19.946Z,35.20
2019-03-30T02:12:25.639Z,35.70
2019-03-30T02:17:31.301Z,35.57
2019-03-30T02:22:36.879Z,35.17
2019-03-30T02:27:43.560Z,38.23
2019-03-30T02:32:49.323Z,36.20
2019-03-30T02:37:54.887Z,33.83
2019-03-30T02:48:20.823Z,33.30
2019-03-30T02:53:26.724Z,33.00
2019-03-30T02:58:32.766Z,31.87
2019-03-30T03:03:38.666Z,28.23
2019-03-30T03:08:44.335Z,31.37
2019-03-30T03:13:49.923Z,29.50
2019-03-30T03:18:55.572Z,28.57
2019-03-30T03:24:01.314Z,29.03
2019-03-30T03:29:06.877Z,26.60
2019-03-30T03:34:12.544Z,28.40
2019-03-30T03:39:18.301Z,23.47
2019-03-30T03:44:23.869Z,25.90
2019-03-30T03:49:29.747Z,29.20
2019-03-30T03:54:35.498Z,27.43
2019-03-30T03:59:41.293Z,26.27
2019-03-30T04:04:47.646Z,27.90
2019-03-30T04:09:53.820Z,26.77
2019-03-30T04:14:59.691Z,26.97
2019-03-30T04:20:05.450Z,25.82
2019-03-30T04:25:11.324Z,24.30
2019-03-30T04:30:16.960Z,24.67
2019-03-30T04:40:28.113Z,22.40
2019-03-30T04:45:33.668Z,21.97
2019-03-30T04:50:39.340Z,21.93
2019-03-30T04:55:45.029Z,22.33
2019-03-30T05:00:50.656Z,20.50
2019-03-30T05:11:01.942Z,22.23
2019-03-30T05:16:07.279Z,21.75
2019-03-30T05:21:12.567Z,23.20
2019-03-30T05:26:18.283Z,23.10
2019-03-30T05:31:24.005Z,23.10
2019-03-30T05:36:29.597Z,21.90
2019-03-30T05:41:35.351Z,22.00
2019-03-30T05:46:40.994Z,21.33
2019-03-30T05:51:46.680Z,18.77
2019-03-30T06:01:57.600Z,19.25
2019-03-30T06:07:03.295Z,20.00
2019-03-30T06:12:10.680Z,17.87
2019-03-30T06:22:21.770Z,20.47
2019-03-30T06:32:32.995Z,19.47
2019-03-30T06:37:38.678Z,20.13
2019-03-30T06:42:44.338Z,20.57
2019-03-30T06:47:49.981Z,18.10
2019-03-30T06:52:58.653Z,21.17
2019-03-30T07:03:09.035Z,19.97
2019-03-30T07:08:14.707Z,20.50
2019-03-30T07:13:20.088Z,17.98
2019-03-30T07:18:25.734Z,17.93
2019-03-30T07:23:31.502Z,19.40
2019-03-30T07:28:37.274Z,18.33
2019-03-30T07:33:42.832Z,19.40
2019-03-30T07:43:53.641Z,18.93
2019-03-30T07:48:59.308Z,17.93
2019-03-30T07:54:04.870Z,19.17
2019-03-30T07:59:10.538Z,19.90
2019-03-30T08:04:16.298Z,19.83
2019-03-30T08:09:21.866Z,19.20
2019-03-30T08:14:27.717Z,19.37
2019-03-30T08:19:33.502Z,18.70
2019-03-30T08:24:39.273Z,18.97
2019-03-30T08:29:44.814Z,18.60
2019-03-30T08:34:50.474Z,17.80
2019-03-30T08:39:56.325Z,18.53
2019-03-30T08:45:14.028Z,18.75
2019-03-30T08:50:20.785Z,18.53
2019-03-30T09:00:31.976Z,17.30
2019-03-30T09:05:37.683Z,17.30
2019-03-30T09:10:43.432Z,18.93
2019-03-30T09:15:49.782Z,18.73
2019-03-30T09:20:55.687Z,17.73
2019-03-30T09:31:07.113Z,18.70
2019-03-30T09:36:12.677Z,18.00
2019-03-30T09:41:18.339Z,16.07
2019-03-30T09:46:23.989Z,19.97
2019-03-30T09:51:29.674Z,18.00
2019-03-30T09:56:35.311Z,16.80
2019-03-30T10:01:40.994Z,19.10
2019-03-30T10:06:46.661Z,17.53
2019-03-30T10:11:52.423Z,18.53
2019-03-30T10:16:58.042Z,19.20
2019-03-30T10:22:03.650Z,18.57
2019-03-30T10:27:09.425Z,16.30
2019-03-30T10:37:20.647Z,19.33
2019-03-30T10:47:31.655Z,18.97
2019-03-30T10:52:37.320Z,22.40
2019-03-30T10:57:42.973Z,25.13
2019-03-30T11:02:48.584Z,22.00
2019-03-30T11:12:59.870Z,22.10
2019-03-30T11:18:05.763Z,21.07
2019-03-30T11:23:11.809Z,20.57
2019-03-30T11:28:17.292Z,21.70
2019-03-30T11:33:22.730Z,23.67
2019-03-30T11:38:28.815Z,21.67
2019-03-30T11:43:34.795Z,19.87
2019-03-30T11:48:41.563Z,21.03
2019-03-30T11:53:47.273Z,18.70
2019-03-30T11:58:52.965Z,20.53
2019-03-30T12:03:58.663Z,22.10
2019-03-30T12:09:04.637Z,24.27
2019-03-30T12:14:10.301Z,20.60
2019-03-30T12:19:15.855Z,20.60
2019-03-30T12:24:21.621Z,18.10
2019-03-30T12:29:27.298Z,18.70
2019-03-30T12:34:32.846Z,19.90
2019-03-30T12:39:38.714Z,22.70
2019-03-30T12:49:50.018Z,21.73
2019-03-30T12:54:55.724Z,18.90
2019-03-30T13:00:01.484Z,20.27
2019-03-30T13:05:07.543Z,20.02
2019-03-30T13:10:13.615Z,19.93
2019-03-30T13:15:19.378Z,18.67
2019-03-30T13:20:25.026Z,18.95
2019-03-30T13:25:30.709Z,19.45
2019-03-30T13:30:36.500Z,18.57
2019-03-30T13:35:42.074Z,22.87
2019-03-30T13:40:47.697Z,20.07
2019-03-30T13:50:59.375Z,22.20
2019-03-30T13:56:16.555Z,17.07
2019-03-30T14:06:18.789Z,105.37
2019-03-30T14:11:25.143Z,292.10
2019-03-30T14:16:30.818Z,205.00
2019-03-30T14:21:37.610Z,193.53
2019-03-30T14:31:48.934Z,181.27
2019-03-30T14:36:54.617Z,94.27
2019-03-30T14:42:00.502Z,131.97
2019-03-30T14:47:17.609Z,278.95
2019-03-30T14:52:23.972Z,136.97
2019-03-30T14:57:29.548Z,232.57
2019-03-30T15:07:40.571Z,70.83
2019-03-30T15:12:46.334Z,73.77
2019-03-30T15:17:51.971Z,72.97
2019-03-30T15:22:57.664Z,137.10
2019-03-30T15:28:03.342Z,103.33
2019-03-30T15:33:08.970Z,104.53
2019-03-30T15:38:14.865Z,69.30
2019-03-30T15:43:20.532Z,58.37
2019-03-30T15:48:28.315Z,92.87
2019-03-30T15:53:34.316Z,122.70
2019-03-30T15:58:41.322Z,147.97
2019-03-30T16:03:46.861Z,185.78
2019-03-30T16:08:53.680Z,217.63
2019-03-30T16:13:59.782Z,389.45
2019-03-30T16:19:06.624Z,330.57
2019-03-30T16:24:12.890Z,248.45
2019-03-30T16:29:18.798Z,204.77
2019-03-30T16:34:25.146Z,267.55
2019-03-30T16:39:34.511Z,505.07
2019-03-30T16:44:38.415Z,620.00
2019-03-30T16:49:44.130Z,466.15
2019-03-30T16:54:49.913Z,470.68
2019-03-30T17:05:05.369Z,469.87
2019-03-30T17:10:11.143Z,386.37
2019-03-30T17:15:17.536Z,235.28
2019-03-30T17:20:23.497Z,115.90
2019-03-30T17:25:29.027Z,57.30
2019-03-30T17:30:35.012Z,31.73
2019-03-30T17:35:40.601Z,57.47
2019-03-30T17:50:58.403Z,169.93
2019-03-30T17:56:08.844Z,493.80
2019-03-30T18:01:16.298Z,599.17
2019-03-30T18:11:27.919Z,809.57
2019-03-30T18:16:34.067Z,746.40
2019-03-30T18:21:39.810Z,474.20
2019-03-30T18:26:45.813Z,230.62
2019-03-30T18:31:51.789Z,528.83
2019-03-30T18:36:58.132Z,613.80
2019-03-30T18:42:04.226Z,589.90
2019-03-30T18:47:10.856Z,632.83
2019-03-30T18:52:16.803Z,511.13
2019-03-30T18:57:22.774Z,510.90
2019-03-30T19:02:28.842Z,323.17
2019-03-30T19:07:35.876Z,275.77
2019-03-30T19:12:41.602Z,87.67
2019-03-30T19:17:48.313Z,66.62
2019-03-30T19:22:54.671Z,383.20
2019-03-30T19:28:00.542Z,377.37
2019-03-30T19:33:06.510Z,452.17
2019-03-30T19:38:14.425Z,413.77
2019-03-30T19:43:20.212Z,380.70
2019-03-30T19:48:25.867Z,342.47
2019-03-30T19:53:31.708Z,309.17
2019-03-30T19:58:37.486Z,289.55
2019-03-30T20:08:48.717Z,268.20
2019-03-30T20:19:12.199Z,206.83
2019-03-30T20:34:25.799Z,196.70
2019-03-30T20:39:31.713Z,199.80
2019-03-30T20:44:37.582Z,170.20
2019-03-30T20:49:55.639Z,171.13
2019-03-30T20:55:01.403Z,200.35
2019-03-30T21:00:07.034Z,179.05
2019-03-30T21:05:12.746Z,150.67
2019-03-30T21:10:18.495Z,142.03
2019-03-30T21:20:29.622Z,111.57
2019-03-30T21:25:35.290Z,139.20
2019-03-30T21:30:41.097Z,97.80
2019-03-30T21:35:48.610Z,125.97
2019-03-30T21:40:56.040Z,95.87
2019-03-30T21:46:03.190Z,114.77
2019-03-30T21:51:11.083Z,110.77
2019-03-30T21:56:16.456Z,78.90
2019-03-30T22:06:34.780Z,67.77
2019-03-30T22:11:42.057Z,94.43
2019-03-30T22:16:47.694Z,102.80
2019-03-30T22:21:53.781Z,172.70
2019-03-30T22:26:59.636Z,97.23
2019-03-30T22:32:05.601Z,127.37
2019-03-30T22:37:11.494Z,323.23
2019-03-30T22:42:17.867Z,127.23
2019-03-30T22:47:23.908Z,242.90
2019-03-30T22:52:30.148Z,101.63
2019-03-30T22:57:40.660Z,94.43
2019-03-30T23:02:49.376Z,113.97
2019-03-30T23:07:55.723Z,123.47
2019-03-30T23:13:01.477Z,72.83
2019-03-30T23:28:43.633Z,143.33
2019-03-30T23:38:56.167Z,148.73
2019-03-30T23:44:01.884Z,415.80
2019-03-30T23:49:07.627Z,123.82
2019-03-30T23:54:13.291Z,62.23
2019-03-30T23:59:19.261Z,378.07
